Jump to content


DELTA AIRLINES FLIGHT DL11 FLOWN ON 03-29-2018 BY CAPTAIN JIM BOERMAN

Pilot StatsCaptain Jim Boerman (LDP136) • 4,870.7 total hours • 1,472 total flights [View Logbook]
FLIGHT DETAILS
StatusReceived and approved on 2018-03-29 at 16:03:32
Origin AirportHeathrow (EGLL) • London, United Kingdom (83 feet MSL)
Filed Flight PlanFLIGHT PLANNER OFFLINE
Destination AirportMinneapolis-St Paul Intl (KMSP) • Minneapolis, Minnesota, United States (841 feet MSL)
Alternate AirportNone Filed
AirlineDelta Airlines
AircraftBoeing 777-200LR (77L / B777-200LR)
FS Aircraft UsedPMDG 777-232LR Delta Air Lines
Cruising AltitudeFL340
Distance Flown3,478 nautical miles
Passengers Onboard130 passengers (43.19% full)
DEPARTURE DETAILS
Time Out12:32:56
Taxi Data536,664 lbs total with 145,210 lbs of fuel onboard
Takeoff Data12:48:48 (16 minutes after leaving gate/ramp) • 534,826 lbs total • 11° pitch at 165 knots
Departure METAREGLL 291120Z AUTO 16012KT 9999 -RA BKN024 BKN033 08/05 Q1001 NOSIG
ARRIVAL DETAILS
Landing Data15:25:28 • 417,445 lbs total • 3° pitch doing 126 knots at a rate of -209.15 feet/minute with 25,288 lbs of fuel onboard
Time In15:34:01 (9 minutes after landing)
Ramp Weight416,742 lbs total
Total Fuel Used119,922 lbs
Total Block Time09:01:04 (9 hours) while 24 minutes were spent on the ground
Arrival METARKMSP 291953Z 34007KT 300V360 10SM FEW250 04/M09 A3010 RMK AO2 SLP202 T00391089
MISCELLANEOUS DETAILS
LiveDISPATCH Version4.8.3.1
FS Version
FSUIPC Version5.12
OS VersionWindows 7 32-bit
Screen Resolution1920 x 1080
Pilot's CommentsNo Comments Reported
FLIGHT MAP